Xin-Shi, Hainan

3:55 AM CST on March 02, 2015 (GMT +0800)
Yaxian | Change Station
CLOSE
Current Station
Airport
Location: Yaxian,
Elevation: 89 ft
Nearby Weather Stations

Elev 89 ft 18.30 °N, 109.41 °E | Updated 55 minutes ago

Mostly Cloudy
Mostly Cloudy
72 °F
Feels Like 72 °F
N
11
Wind Variable Wind from East

Today
High -- | Low -- °F
--% Chance of Precip.
Yesterday
High -- | Low -- °F
Precip. -- in
6:59 AM 6:46 PM
Waxing Gibbous, 87% visible
Pressure 29.98 in
Visibility 5.6 miles
Clouds Mostly Cloudy 1900 ft
Dew Point 68 °F
Humidity 88%
Rainfall 0.00 in
Snow Depth Not available.
UV 0 out of 12
Pollen Not available.
Air Quality Not available.
Flu Activity Not available.
METAR ZJSY 011900Z 09005MPS 9000 BKN019 22/20 Q1015 NOSIG

More Conditions Fewer Conditions

Pressure 29.98 in
Visibility 5.6 miles
Clouds Mostly Cloudy 1900 ft
Dew Point 68 °F
Humidity 88%
Rainfall 0.00 in
Snow Depth Not available.
UV 0 out of 12
Pollen Not available.
Air Quality Not available.
Flu Activity Not available.
METAR ZJSY 011900Z 09005MPS 9000 BKN019 22/20 Q1015 NOSIG

More Conditions Fewer Conditions

10-Day Weather Forecast

Almanac

Astronomy

Mar. 02, 2015 Rise Set
Actual Time
Civil Twilight
Nautical Twilight
Astronomical Twilight
Moon
Length of Visible Light
Length of Day
Tomorrow will be .
, % of the Moon is Illuminated

Today's Extremes

Country Highs Country Lows

Community

WunderPhotos

Upload Photos

1,801,491 photos uploaded!

WunderBlogs® & News

Nearby

Air Quality

  Air Quality AQ Index Pollutant
Not available.

Snow Depth

Station Depth Elevation

Earthquake Activity

City Distance Mag. Time & Date
Minimum magnitude displayed is 2.5.

Coastal Water Temperatures

Place Temperature

Nearby Weather Stations